createdAt,value
2023-02-12T00:20:10.758Z,446
2023-02-12T00:35:10.149Z,447
2023-02-12T00:50:12.002Z,446
2023-02-12T01:20:13.320Z,446
2023-02-12T01:50:09.902Z,445
2023-02-12T02:20:09.919Z,445
2023-02-12T02:35:10.245Z,444
2023-02-12T02:50:11.137Z,443
2023-02-12T03:05:13.873Z,444
2023-02-12T03:35:13.389Z,444
2023-02-12T04:05:09.974Z,444
2023-02-12T04:20:13.408Z,444
2023-02-12T04:35:09.886Z,444
2023-02-12T05:05:10.494Z,443
2023-02-12T05:35:09.937Z,443
2023-02-12T05:50:12.413Z,444
2023-02-12T06:05:14.338Z,443
2023-02-12T06:35:13.347Z,443
2023-02-12T07:05:12.469Z,443
2023-02-12T07:35:13.263Z,444
2023-02-12T08:05:12.303Z,443
2023-02-12T08:20:11.450Z,443
2023-02-12T08:50:11.377Z,442
2023-02-12T09:05:11.176Z,443
2023-02-12T09:20:12.536Z,441
2023-02-12T09:50:13.221Z,440
2023-02-12T10:20:12.415Z,439
2023-02-12T10:50:11.166Z,439
2023-02-12T11:05:10.545Z,440
2023-02-12T11:35:10.178Z,440
2023-02-12T11:50:14.561Z,440
2023-02-12T12:05:12.461Z,439
2023-02-12T12:20:14.494Z,438
2023-02-12T12:50:12.631Z,438
2023-02-12T13:20:14.267Z,438
2023-02-12T13:50:12.311Z,438
2023-02-12T14:20:11.653Z,437
2023-02-12T14:50:11.387Z,437
2023-02-12T15:20:13.322Z,437
2023-02-12T15:50:10.334Z,437
2023-02-12T16:05:10.770Z,437
2023-02-12T16:35:12.783Z,436
2023-02-12T17:05:10.664Z,435
2023-02-12T17:35:13.440Z,435
2023-02-12T17:50:12.505Z,436
2023-02-12T18:05:12.785Z,434
2023-02-12T18:35:10.542Z,434
2023-02-12T18:50:11.396Z,435
2023-02-12T19:05:10.785Z,434
2023-02-12T19:20:14.773Z,435
2023-02-12T19:50:13.607Z,435
2023-02-12T20:20:12.835Z,435
2023-02-12T20:35:12.417Z,434
2023-02-12T21:05:12.771Z,434
2023-02-12T21:20:13.965Z,433
2023-02-12T21:50:14.030Z,433
2023-02-12T22:05:14.556Z,433
2023-02-12T22:20:14.867Z,433
2023-02-12T22:35:12.981Z,434
2023-02-12T23:05:11.577Z,434
2023-02-12T23:35:13.872Z,435
2023-02-12T23:50:15.006Z,432
